createdAt,value
2023-03-19T00:03:23.893Z,21.59
2023-03-19T00:07:23.805Z,21.58
2023-03-19T00:11:23.805Z,21.58
2023-03-19T00:15:23.766Z,21.57
2023-03-19T00:19:23.706Z,21.57
2023-03-19T00:23:23.800Z,21.57
2023-03-19T00:27:23.754Z,21.56
2023-03-19T00:31:23.791Z,21.56
2023-03-19T00:35:23.862Z,21.55
2023-03-19T00:39:23.938Z,21.54
2023-03-19T00:43:23.986Z,21.55
2023-03-19T00:47:24.027Z,21.53
2023-03-19T00:51:24.077Z,21.54
2023-03-19T00:55:24.177Z,21.52
2023-03-19T00:59:24.243Z,21.51
2023-03-19T01:03:24.355Z,21.51
2023-03-19T01:07:24.328Z,21.51
2023-03-19T01:11:24.466Z,21.50
2023-03-19T01:15:24.555Z,21.50
2023-03-19T01:19:24.719Z,21.50
2023-03-19T01:23:24.785Z,21.49
2023-03-19T01:27:25.924Z,21.48
2023-03-19T01:31:24.975Z,21.47
2023-03-19T01:35:25.156Z,21.47
2023-03-19T01:39:25.136Z,21.46
2023-03-19T01:43:25.296Z,21.46
2023-03-19T01:47:25.344Z,21.45
2023-03-19T01:51:25.503Z,21.45
2023-03-19T01:55:25.522Z,21.45
2023-03-19T01:59:25.670Z,21.44
2023-03-19T02:03:25.727Z,21.44
2023-03-19T02:07:25.852Z,21.44
2023-03-19T02:11:25.919Z,21.44
2023-03-19T02:15:25.992Z,21.43
2023-03-19T02:19:26.128Z,21.43
2023-03-19T02:23:26.218Z,21.43
2023-03-19T02:27:26.321Z,21.43
2023-03-19T02:31:26.472Z,21.42
2023-03-19T02:35:26.517Z,21.40
2023-03-19T02:39:26.649Z,21.40
2023-03-19T02:43:26.791Z,21.40
2023-03-19T02:47:26.851Z,21.39
2023-03-19T02:51:27.018Z,21.39
2023-03-19T02:55:27.154Z,21.39
2023-03-19T02:59:27.214Z,21.38
2023-03-19T03:03:27.370Z,21.38
2023-03-19T03:07:27.487Z,21.36
2023-03-19T03:11:27.715Z,21.36
2023-03-19T03:15:27.773Z,21.36
2023-03-19T03:19:27.917Z,21.36
2023-03-19T03:23:28.103Z,21.35
2023-03-19T03:27:28.215Z,21.34
2023-03-19T03:31:28.358Z,21.34
2023-03-19T03:35:28.549Z,21.34
2023-03-19T03:39:28.704Z,21.33
2023-03-19T03:43:28.780Z,21.32
2023-03-19T03:49:59.431Z,21.33
2023-03-19T03:53:59.298Z,21.32
2023-03-19T03:57:59.637Z,21.31
2023-03-19T04:01:59.793Z,21.30
2023-03-19T04:05:59.224Z,21.29
2023-03-19T04:09:59.183Z,21.30
2023-03-19T04:13:59.186Z,21.29
2023-03-19T04:17:59.078Z,21.29
2023-03-19T04:21:59.128Z,21.28
2023-03-19T04:25:59.065Z,21.28
2023-03-19T04:29:59.036Z,21.27
2023-03-19T04:33:59.236Z,21.27
2023-03-19T04:37:59.560Z,21.26
2023-03-19T04:41:59.582Z,21.25
2023-03-19T04:45:59.808Z,21.25
2023-03-19T04:49:59.975Z,21.25
2023-03-19T04:54:00.210Z,21.23
2023-03-19T04:58:00.333Z,21.24
2023-03-19T05:02:00.457Z,21.23
2023-03-19T05:06:01.089Z,21.24
2023-03-19T05:10:00.768Z,21.23
2023-03-19T05:14:00.941Z,21.22
2023-03-19T05:18:01.003Z,21.21
2023-03-19T05:22:01.175Z,21.21
2023-03-19T05:26:01.364Z,21.21
2023-03-19T05:30:01.701Z,21.20
2023-03-19T05:34:02.114Z,21.21
2023-03-19T05:38:01.841Z,21.20
2023-03-19T05:42:01.951Z,21.20
2023-03-19T05:46:02.141Z,21.19
2023-03-19T05:50:02.370Z,21.19
2023-03-19T05:54:02.384Z,21.20
2023-03-19T05:58:02.532Z,21.20
2023-03-19T06:02:02.724Z,21.20
2023-03-19T06:06:02.773Z,21.20
2023-03-19T06:10:02.936Z,21.22
2023-03-19T06:14:03.108Z,21.21
2023-03-19T06:18:03.288Z,21.22
2023-03-19T06:22:03.407Z,21.23
2023-03-19T06:26:03.578Z,21.23
2023-03-19T06:30:03.713Z,21.24
2023-03-19T06:34:03.897Z,21.24
2023-03-19T06:38:04.072Z,21.25
2023-03-19T06:42:04.283Z,21.25
2023-03-19T06:46:04.393Z,21.26
2023-03-19T06:50:04.490Z,21.28
2023-03-19T06:54:04.620Z,21.28
2023-03-19T06:58:04.805Z,21.30
2023-03-19T07:02:04.972Z,21.32
2023-03-19T07:06:05.148Z,21.33
2023-03-19T07:10:05.339Z,21.34
2023-03-19T07:14:05.548Z,21.36
2023-03-19T07:18:05.704Z,21.37
2023-03-19T07:23:21.275Z,21.39
2023-03-19T07:27:21.142Z,21.40
2023-03-19T07:31:21.153Z,21.42
2023-03-19T07:35:21.086Z,21.44
2023-03-19T07:39:21.122Z,21.46
2023-03-19T07:43:21.003Z,21.49
2023-03-19T07:47:28.824Z,21.50
2023-03-19T07:51:22.005Z,21.50
2023-03-19T07:55:20.880Z,21.51
2023-03-19T07:59:20.979Z,21.51
2023-03-19T08:03:20.854Z,21.52
2023-03-19T08:07:20.767Z,21.53
2023-03-19T08:11:20.730Z,21.57
2023-03-19T08:15:20.719Z,21.63
2023-03-19T08:19:20.642Z,21.64
2023-03-19T08:23:20.618Z,21.67
2023-03-19T08:27:20.552Z,21.71
2023-03-19T08:31:20.578Z,21.75
2023-03-19T08:35:20.563Z,21.79
2023-03-19T08:39:20.573Z,21.83
2023-03-19T08:43:20.652Z,21.85
2023-03-19T08:47:20.583Z,21.92
2023-03-19T08:51:20.658Z,21.98
2023-03-19T08:55:20.773Z,22.03
2023-03-19T08:59:20.699Z,22.08
2023-03-19T09:03:20.672Z,22.13
2023-03-19T09:07:20.661Z,22.18
2023-03-19T09:11:20.672Z,22.22
2023-03-19T09:15:20.637Z,22.26
2023-03-19T09:19:20.571Z,22.29
2023-03-19T09:23:20.552Z,22.27
2023-03-19T09:27:20.509Z,22.34
2023-03-19T09:31:20.478Z,22.41
2023-03-19T09:35:20.390Z,22.44
2023-03-19T09:39:20.402Z,22.50
2023-03-19T09:43:20.948Z,22.54
2023-03-19T09:47:20.659Z,22.60
2023-03-19T09:51:20.790Z,22.65
2023-03-19T09:55:20.964Z,22.70
2023-03-19T09:59:21.044Z,22.74
2023-03-19T10:03:21.181Z,22.79
2023-03-19T10:07:21.255Z,22.82
2023-03-19T10:11:21.955Z,22.87
2023-03-19T10:15:21.440Z,22.92
2023-03-19T10:19:22.262Z,22.98
2023-03-19T10:23:21.505Z,23.03
2023-03-19T10:27:21.524Z,23.06
2023-03-19T10:31:21.717Z,23.11
2023-03-19T10:35:21.554Z,23.16
2023-03-19T10:39:21.572Z,23.22
2023-03-19T10:43:21.616Z,23.27
2023-03-19T10:47:21.512Z,23.31
2023-03-19T10:51:21.553Z,23.36
2023-03-19T10:55:22.463Z,23.32
2023-03-19T10:59:21.617Z,23.33
2023-03-19T11:03:22.474Z,23.30
2023-03-19T11:07:21.856Z,23.32
2023-03-19T11:11:22.001Z,23.36
2023-03-19T11:15:22.538Z,23.40
2023-03-19T11:19:22.451Z,23.42
2023-03-19T11:23:22.408Z,23.46
2023-03-19T11:27:22.344Z,23.51
2023-03-19T11:31:22.355Z,23.55
2023-03-19T11:35:22.995Z,23.59
2023-03-19T11:39:22.267Z,23.64
2023-03-19T11:43:22.206Z,23.66
2023-03-19T11:47:27.393Z,23.68
2023-03-19T11:51:23.073Z,23.68
2023-03-19T11:55:22.087Z,23.71
2023-03-19T11:59:22.085Z,23.73
2023-03-19T12:03:22.044Z,23.73
2023-03-19T12:07:21.980Z,23.74
2023-03-19T12:11:21.903Z,23.75
2023-03-19T12:15:21.876Z,23.75
2023-03-19T12:19:21.985Z,23.74
2023-03-19T12:23:22.062Z,23.76
2023-03-19T12:27:22.235Z,23.78
2023-03-19T12:31:22.441Z,23.77
2023-03-19T12:35:22.564Z,23.76
2023-03-19T12:39:22.729Z,23.71
2023-03-19T12:43:22.904Z,23.67
2023-03-19T12:47:23.077Z,23.64
2023-03-19T12:51:23.259Z,23.58
2023-03-19T12:55:23.534Z,23.55
2023-03-19T12:59:23.444Z,23.51
2023-03-19T13:03:24.033Z,23.46
2023-03-19T13:07:23.393Z,23.40
2023-03-19T13:11:23.365Z,23.35
2023-03-19T13:15:23.288Z,23.30
2023-03-19T13:19:23.271Z,23.26
2023-03-19T13:23:23.236Z,23.22
2023-03-19T13:27:23.205Z,23.20
2023-03-19T13:31:23.611Z,23.19
2023-03-19T13:35:23.101Z,23.16
2023-03-19T13:39:23.061Z,23.14
2023-03-19T13:43:28.331Z,23.11
2023-03-19T13:47:24.004Z,23.08
2023-03-19T13:51:22.987Z,23.05
2023-03-19T13:55:22.917Z,23.03
2023-03-19T13:59:22.881Z,23.02
2023-03-19T14:03:22.883Z,22.99
2023-03-19T14:07:22.877Z,22.97
2023-03-19T14:11:22.793Z,22.95
2023-03-19T14:15:23.000Z,22.91
2023-03-19T14:19:22.893Z,22.87
2023-03-19T14:23:26.267Z,22.84
2023-03-19T14:27:23.951Z,22.81
2023-03-19T14:31:23.082Z,22.78
2023-03-19T14:35:22.883Z,22.77
2023-03-19T14:39:22.808Z,22.75
2023-03-19T14:43:22.784Z,22.74
2023-03-19T14:47:22.973Z,22.71
2023-03-19T14:51:23.110Z,22.68
2023-03-19T14:55:23.210Z,22.66
2023-03-19T14:59:23.291Z,22.64
2023-03-19T15:03:23.527Z,22.64
2023-03-19T15:07:23.538Z,22.62
2023-03-19T15:11:23.671Z,22.60
2023-03-19T15:15:23.830Z,22.58
2023-03-19T15:19:24.001Z,22.57
2023-03-19T15:23:27.733Z,22.55
2023-03-19T15:27:24.050Z,22.54
2023-03-19T15:31:33.467Z,22.53
2023-03-19T15:35:24.989Z,22.56
2023-03-19T15:39:23.931Z,22.54
2023-03-19T15:43:23.898Z,22.49
2023-03-19T15:47:23.977Z,22.43
2023-03-19T15:51:24.154Z,22.41
2023-03-19T15:55:24.367Z,22.39
2023-03-19T15:59:24.444Z,22.37
2023-03-19T16:03:24.623Z,22.35
2023-03-19T16:07:24.796Z,22.35
2023-03-19T16:11:24.976Z,22.34
2023-03-19T16:15:25.213Z,22.34
2023-03-19T16:19:25.392Z,22.31
2023-03-19T16:23:25.603Z,22.30
2023-03-19T16:27:25.770Z,22.28
2023-03-19T16:31:25.993Z,22.26
2023-03-19T16:35:25.929Z,22.24
2023-03-19T16:39:25.901Z,22.22
2023-03-19T16:43:25.972Z,22.24
2023-03-19T16:47:25.847Z,22.23
2023-03-19T16:51:25.825Z,22.22
2023-03-19T16:55:25.862Z,22.20
2023-03-19T16:59:25.760Z,22.18
2023-03-19T17:03:25.837Z,22.15
2023-03-19T17:07:25.745Z,22.15
2023-03-19T17:11:25.737Z,22.15
2023-03-19T17:15:25.761Z,22.16
2023-03-19T17:19:25.723Z,22.12
2023-03-19T17:23:25.688Z,22.11
2023-03-19T17:27:25.725Z,22.09
2023-03-19T17:31:25.635Z,22.07
2023-03-19T17:35:25.517Z,22.06
2023-03-19T17:39:25.596Z,22.05
2023-03-19T17:43:25.532Z,22.04
2023-03-19T17:47:25.431Z,22.04
2023-03-19T17:51:25.367Z,22.06
2023-03-19T17:55:25.476Z,22.08
2023-03-19T17:59:25.684Z,22.09
2023-03-19T18:03:25.400Z,22.07
2023-03-19T18:07:25.258Z,22.07
2023-03-19T18:11:26.170Z,22.06
2023-03-19T18:15:25.447Z,22.05
2023-03-19T18:19:25.587Z,22.02
2023-03-19T18:23:25.801Z,22.01
2023-03-19T18:27:25.911Z,22.00
2023-03-19T18:31:26.079Z,22.01
2023-03-19T18:35:26.413Z,21.99
2023-03-19T18:39:26.170Z,21.98
2023-03-19T18:43:26.139Z,21.96
2023-03-19T18:47:26.035Z,21.97
2023-03-19T18:51:26.009Z,21.98
2023-03-19T18:55:25.977Z,21.96
2023-03-19T18:59:25.970Z,21.96
2023-03-19T19:03:25.921Z,21.96
2023-03-19T19:07:25.862Z,21.96
2023-03-19T19:11:26.439Z,21.95
2023-03-19T19:15:27.193Z,21.93
2023-03-19T19:19:26.220Z,21.92
2023-03-19T19:23:25.770Z,21.90
2023-03-19T19:27:25.693Z,21.91
2023-03-19T19:31:26.811Z,21.88
2023-03-19T19:35:25.581Z,21.86
2023-03-19T19:39:25.579Z,21.86
2023-03-19T19:43:25.510Z,21.86
2023-03-19T19:47:25.498Z,21.86
2023-03-19T19:51:25.433Z,21.86
2023-03-19T19:55:25.711Z,21.82
2023-03-19T19:59:25.376Z,21.83
2023-03-19T20:03:26.230Z,21.84
2023-03-19T20:07:25.304Z,21.84
2023-03-19T20:11:25.233Z,21.82
2023-03-19T20:15:25.211Z,21.81
2023-03-19T20:19:26.194Z,21.80
2023-03-19T20:23:25.130Z,21.78
2023-03-19T20:27:25.106Z,21.77
2023-03-19T20:31:25.128Z,21.75
2023-03-19T20:35:25.087Z,21.75
2023-03-19T20:39:25.018Z,21.75
2023-03-19T20:43:27.850Z,21.76
2023-03-19T20:47:25.785Z,21.76
2023-03-19T20:51:24.997Z,21.74
2023-03-19T20:55:24.879Z,21.72
2023-03-19T20:59:24.808Z,21.70
2023-03-19T21:03:24.797Z,21.70
2023-03-19T21:07:24.722Z,21.69
2023-03-19T21:11:24.696Z,21.71
2023-03-19T21:15:24.663Z,21.68
2023-03-19T21:19:25.203Z,21.67
2023-03-19T21:23:24.606Z,21.69
2023-03-19T21:27:24.523Z,21.68
2023-03-19T21:31:24.536Z,21.67
2023-03-19T21:35:24.555Z,21.67
2023-03-19T21:39:24.455Z,21.67
2023-03-19T21:43:24.404Z,21.65
2023-03-19T21:47:24.375Z,21.64
2023-03-19T21:51:24.318Z,21.63
2023-03-19T21:55:24.294Z,21.64
2023-03-19T21:59:24.260Z,21.62
2023-03-19T22:03:24.255Z,21.62
2023-03-19T22:07:24.148Z,21.60
2023-03-19T22:11:24.122Z,21.59
2023-03-19T22:15:24.091Z,21.60
2023-03-19T22:19:24.739Z,21.59
2023-03-19T22:23:24.033Z,21.59
2023-03-19T22:27:24.279Z,21.58
2023-03-19T22:31:24.033Z,21.58
2023-03-19T22:35:23.897Z,21.57
2023-03-19T22:39:23.926Z,21.58
2023-03-19T22:43:23.900Z,21.58
2023-03-19T22:47:23.764Z,21.57
2023-03-19T22:51:23.794Z,21.56
2023-03-19T22:55:23.717Z,21.56
2023-03-19T22:59:24.336Z,21.54
2023-03-19T23:03:23.661Z,21.54
2023-03-19T23:07:23.619Z,21.54
2023-03-19T23:11:23.761Z,21.55
2023-03-19T23:15:23.522Z,21.54
2023-03-19T23:19:23.499Z,21.53
2023-03-19T23:23:24.229Z,21.54
2023-03-19T23:27:23.398Z,21.54
2023-03-19T23:31:23.356Z,21.52
2023-03-19T23:35:23.330Z,21.51
2023-03-19T23:39:23.364Z,21.51
2023-03-19T23:43:23.340Z,21.50
2023-03-19T23:47:23.748Z,21.50
2023-03-19T23:51:23.415Z,21.49
2023-03-19T23:55:23.469Z,21.49
2023-03-19T23:59:23.535Z,21.48
